Airfield :
LOGIN :

Register | Disclaimer

   EN    FR    IT 

 










Legend :    VFR   Marginal VFR   IFR   Intensive IFR   Very Intensive IFR
Visi :
Ceiling :
>= 8 km
>= 3000ft
5 to 8 km
1000 to 3000 ft
1500m to 5 km
500 to 1000 ft
800 to 1500m
200 to 500 ft
< 800m
< 200 ft
Symbols :   Thunderstorms  Fog  Heavy snow  Heavy precipitations  Wind > 20 kt
SIGMETs :     Misc.  Thunderstorms  Icing  Turbulence  Mountain Waves  Volcanic Ashes






- Airport Elevation : 125 ft
- IATA code : MGL


EDLN - Mönchengladbach

CURRENT METAR :
  • 191820Z 00000KT CAVOK 02/01 Q1043

EXPIRED METARs :
  • 191750Z VRB02KT CAVOK 02/01 Q1043
  • 191720Z 31003KT CAVOK 03/02 Q1043
  • 191650Z 35004KT CAVOK 05/02 Q1042
  • 191620Z 34006KT 9999 FEW041 06/02 Q1042
  • 191550Z 34006KT 9999 FEW023 SCT031 06/03 Q1041

TAF TAF EDLN
Valid from the 19 at 18:00 until the 20 at 03:00 UTC


191700Z 1918/2003 33004KT 9999 FEW040
BECMG 2000/2003 2500 BR



MET'MAP, your aeronautical weather chart ! - Copyright ORBIFLY December 2007 - Disclaimer

ORBIFLY MET'MAP TEAM :

Programming & Development : Alexandra Zaïnal
Concept & original design : Baudouin d'Aumeries
Assistance for programming : Marc-Olivier Méhu
Technical & hardware support : Manuel Goepfert

Contact : metmap@orbifly.com




SOURCES & CREDITS :

   NOAA